createdAt,value
2018-02-20T00:00:01.845Z,-3.10
2018-02-20T00:02:29.467Z,-3.10
2018-02-20T00:04:57.044Z,-3.10
2018-02-20T00:07:25.363Z,-3.30
2018-02-20T00:09:52.959Z,-3.30
2018-02-20T00:12:20.502Z,-3.40
2018-02-20T00:14:48.088Z,-3.40
2018-02-20T00:17:15.695Z,-3.40
2018-02-20T00:19:43.270Z,-3.40
2018-02-20T00:22:10.876Z,-3.50
2018-02-20T00:24:39.235Z,-3.70
2018-02-20T00:27:06.806Z,-3.80
2018-02-20T00:29:34.411Z,-3.60
2018-02-20T00:32:02.198Z,-3.70
2018-02-20T00:34:29.799Z,-3.80
2018-02-20T00:36:58.143Z,-3.50
2018-02-20T00:39:25.707Z,-3.60
2018-02-20T00:41:53.323Z,-3.40
2018-02-20T00:44:20.894Z,-3.50
2018-02-20T00:46:48.466Z,-3.30
2018-02-20T00:49:16.062Z,-3.40
2018-02-20T00:51:44.401Z,-3.70
2018-02-20T00:54:12.009Z,-3.70
2018-02-20T00:56:40.390Z,-3.70
2018-02-20T00:59:08.748Z,-3.70
2018-02-20T01:01:37.104Z,-3.80
2018-02-20T01:04:04.693Z,-3.80
2018-02-20T01:06:33.039Z,-3.70
2018-02-20T01:09:00.626Z,-3.70
2018-02-20T01:11:28.995Z,-3.70
2018-02-20T01:13:56.663Z,-3.70
2018-02-20T01:16:24.315Z,-3.80
2018-02-20T01:18:51.927Z,-3.60
2018-02-20T01:21:19.514Z,-3.30
2018-02-20T01:23:47.105Z,-3.20
2018-02-20T01:26:14.720Z,-3.00
2018-02-20T01:28:42.330Z,-3.30
2018-02-20T01:31:10.671Z,-3.60
2018-02-20T01:33:38.243Z,-3.60
2018-02-20T01:36:06.701Z,-3.60
2018-02-20T01:38:34.270Z,-3.70
2018-02-20T01:41:01.833Z,-3.60
2018-02-20T01:43:29.444Z,-3.60
2018-02-20T01:45:57.016Z,-3.70
2018-02-20T01:48:24.583Z,-3.80
2018-02-20T01:51:04.114Z,-3.90
2018-02-20T01:53:31.705Z,-4.00
2018-02-20T01:55:59.289Z,-3.90
2018-02-20T01:58:28.407Z,-3.90
2018-02-20T02:00:57.056Z,-4.00
2018-02-20T02:03:24.641Z,-4.10
2018-02-20T02:05:53.015Z,-4.30
2018-02-20T02:08:21.341Z,-4.30
2018-02-20T02:10:48.938Z,-4.40
2018-02-20T02:13:16.556Z,-4.20
2018-02-20T02:15:44.392Z,-4.00
2018-02-20T02:18:11.960Z,-3.90
2018-02-20T02:20:39.552Z,-3.70
2018-02-20T02:23:07.134Z,-3.60
2018-02-20T02:25:35.521Z,-3.60
2018-02-20T02:28:03.138Z,-3.70
2018-02-20T02:30:31.081Z,-3.50
2018-02-20T02:32:58.834Z,-3.50
2018-02-20T02:35:27.582Z,-3.50
2018-02-20T02:37:56.743Z,-3.50
2018-02-20T02:40:24.365Z,-3.50
2018-02-20T02:42:52.710Z,-3.80
2018-02-20T02:45:20.407Z,-3.80
2018-02-20T02:47:48.794Z,-3.70
2018-02-20T02:50:16.376Z,-3.80
2018-02-20T02:52:44.023Z,-3.60
2018-02-20T02:55:11.627Z,-3.70
2018-02-20T02:57:40.717Z,-3.60
2018-02-20T03:00:09.241Z,-3.60
2018-02-20T03:02:37.596Z,-3.70
2018-02-20T03:05:05.984Z,-3.80
2018-02-20T03:07:34.329Z,-3.80
2018-02-20T03:10:01.918Z,-3.80
2018-02-20T03:12:29.624Z,-3.80
2018-02-20T03:14:57.215Z,-3.90
2018-02-20T03:17:24.786Z,-4.00
2018-02-20T03:19:52.401Z,-4.00
2018-02-20T03:22:19.974Z,-4.00
2018-02-20T03:24:47.538Z,-3.90
2018-02-20T03:27:15.144Z,-3.80
2018-02-20T03:29:43.654Z,-3.80
2018-02-20T03:32:11.228Z,-3.90
2018-02-20T03:34:39.336Z,-4.00
2018-02-20T03:37:07.677Z,-4.10
2018-02-20T03:39:35.241Z,-4.20
2018-02-20T03:42:03.233Z,-4.20
2018-02-20T03:44:30.817Z,-4.20
2018-02-20T03:46:59.162Z,-4.20
2018-02-20T03:49:26.778Z,-4.30
2018-02-20T03:51:54.365Z,-4.20
2018-02-20T03:54:21.942Z,-4.20
2018-02-20T03:56:49.534Z,-4.30
2018-02-20T03:59:17.874Z,-4.40
2018-02-20T04:01:45.715Z,-4.50
2018-02-20T04:04:13.303Z,-4.40
2018-02-20T04:06:40.895Z,-4.30
2018-02-20T04:09:09.240Z,-4.40
2018-02-20T04:11:36.841Z,-4.40
2018-02-20T04:14:05.186Z,-4.50
2018-02-20T04:16:32.780Z,-4.60
2018-02-20T04:19:01.144Z,-4.20
2018-02-20T04:21:28.738Z,-4.30
2018-02-20T04:23:56.360Z,-4.00
2018-02-20T04:26:24.705Z,-4.10
2018-02-20T04:28:53.096Z,-4.20
2018-02-20T04:31:20.708Z,-4.20
2018-02-20T04:33:48.283Z,-4.20
2018-02-20T04:36:15.852Z,-4.20
2018-02-20T04:38:43.462Z,-4.20
2018-02-20T04:41:11.803Z,-4.20
2018-02-20T04:43:39.378Z,-4.30
2018-02-20T04:46:08.498Z,-4.30
2018-02-20T04:48:36.086Z,-4.30
2018-02-20T04:51:03.658Z,-4.30
2018-02-20T04:53:31.258Z,-4.30
2018-02-20T04:55:59.598Z,-4.30
2018-02-20T04:58:27.192Z,-4.40
2018-02-20T05:00:55.583Z,-4.30
2018-02-20T05:03:23.222Z,-4.30
2018-02-20T05:05:51.589Z,-4.20
2018-02-20T05:08:19.943Z,-4.20
2018-02-20T05:10:47.557Z,-4.30
2018-02-20T05:13:16.099Z,-4.40
2018-02-20T05:15:43.678Z,-4.40
2018-02-20T05:18:11.273Z,-4.40
2018-02-20T05:20:39.295Z,-4.40
2018-02-20T05:23:06.917Z,-4.30
2018-02-20T05:25:34.504Z,-4.10
2018-02-20T05:28:02.337Z,-4.10
2018-02-20T05:30:29.918Z,-4.40
2018-02-20T05:32:57.505Z,-4.50
2018-02-20T05:35:25.117Z,-4.40
2018-02-20T05:37:52.695Z,-4.40
2018-02-20T05:40:20.279Z,-4.40
2018-02-20T05:42:47.895Z,-4.30
2018-02-20T05:45:15.464Z,-4.40
2018-02-20T05:47:43.060Z,-4.30
2018-02-20T05:50:10.660Z,-4.30
2018-02-20T05:52:38.263Z,-4.50
2018-02-20T05:55:06.133Z,-4.60
2018-02-20T05:57:33.860Z,-4.60
2018-02-20T06:00:01.428Z,-4.40
2018-02-20T06:02:29.032Z,-4.40
2018-02-20T06:04:56.613Z,-4.30
2018-02-20T06:07:24.998Z,-4.50
2018-02-20T06:09:53.344Z,-4.50
2018-02-20T06:12:20.933Z,-4.60
2018-02-20T06:14:48.530Z,-4.60
2018-02-20T06:17:16.111Z,-4.80
2018-02-20T06:19:45.347Z,-4.70
2018-02-20T06:22:12.956Z,-4.70
2018-02-20T06:24:40.531Z,-4.80
2018-02-20T06:27:08.095Z,-4.90
2018-02-20T06:29:35.809Z,-4.90
2018-02-20T06:32:03.398Z,-4.80
2018-02-20T06:34:30.998Z,-4.90
2018-02-20T06:36:59.512Z,-5.00
2018-02-20T06:39:27.091Z,-5.10
2018-02-20T06:41:54.832Z,-5.10
2018-02-20T06:44:22.451Z,-4.80
2018-02-20T06:46:50.812Z,-4.70
2018-02-20T06:49:18.374Z,-4.80
2018-02-20T06:51:45.975Z,-4.70
2018-02-20T06:54:13.542Z,-4.80
2018-02-20T06:56:41.123Z,-4.60
2018-02-20T06:59:08.732Z,-4.60
2018-02-20T07:01:37.096Z,-4.60
2018-02-20T07:04:04.696Z,-4.70
2018-02-20T07:06:32.306Z,-4.70
2018-02-20T07:08:59.919Z,-4.70
2018-02-20T07:11:27.498Z,-4.40
2018-02-20T07:13:55.114Z,-4.40
2018-02-20T07:16:22.703Z,-4.20
2018-02-20T07:18:50.282Z,-4.00
2018-02-20T07:21:17.900Z,-3.80
2018-02-20T07:23:45.481Z,-4.00
2018-02-20T07:26:13.059Z,-4.00
2018-02-20T07:28:40.673Z,-4.00
2018-02-20T07:31:08.997Z,-4.00
2018-02-20T07:33:36.567Z,-4.10
2018-02-20T07:36:04.172Z,-3.90
2018-02-20T07:38:31.751Z,-3.90
2018-02-20T07:40:59.362Z,-3.80
2018-02-20T07:43:26.940Z,-3.70
2018-02-20T07:45:55.274Z,-3.60
2018-02-20T07:48:22.879Z,-3.60
2018-02-20T07:50:51.215Z,-3.40
2018-02-20T07:53:18.790Z,-3.40
2018-02-20T07:55:46.389Z,-3.30
2018-02-20T07:58:13.980Z,-3.20
2018-02-20T08:00:41.543Z,-3.10
2018-02-20T08:03:09.149Z,-3.00
2018-02-20T08:05:37.521Z,-2.80
2018-02-20T08:08:05.871Z,-2.70
2018-02-20T08:10:33.669Z,-2.70
2018-02-20T08:13:02.009Z,-2.40
2018-02-20T08:15:29.586Z,-2.50
2018-02-20T08:17:57.192Z,-2.30
2018-02-20T08:20:24.763Z,-2.30
2018-02-20T08:22:52.356Z,-2.30
2018-02-20T08:25:21.027Z,-2.10
2018-02-20T08:27:48.617Z,-2.20
2018-02-20T08:30:16.955Z,-1.90
2018-02-20T08:32:44.563Z,-2.00
2018-02-20T08:35:12.905Z,-1.80
2018-02-20T08:37:41.999Z,-1.80
2018-02-20T08:40:09.620Z,-1.70
2018-02-20T08:42:37.201Z,-1.50
2018-02-20T08:45:04.766Z,-1.30
2018-02-20T08:47:32.394Z,-1.10
2018-02-20T08:50:00.009Z,-0.90
2018-02-20T08:52:28.349Z,-0.80
2018-02-20T08:54:55.965Z,-0.80
2018-02-20T08:57:24.327Z,-0.60
2018-02-20T08:59:52.044Z,-0.70
2018-02-20T09:02:19.610Z,-0.50
2018-02-20T09:04:47.230Z,-0.30
2018-02-20T09:07:15.616Z,-0.10
2018-02-20T09:09:43.193Z,-0.20
2018-02-20T09:12:10.879Z,0.00
2018-02-20T09:14:39.215Z,0.20
2018-02-20T09:17:06.772Z,0.20
2018-02-20T09:19:34.377Z,0.30
2018-02-20T09:22:02.149Z,0.40
2018-02-20T09:24:29.713Z,0.50
2018-02-20T09:26:57.323Z,0.60
2018-02-20T09:29:24.907Z,0.80
2018-02-20T09:31:52.493Z,1.10
2018-02-20T09:34:20.108Z,1.30
2018-02-20T09:36:47.744Z,1.40
2018-02-20T09:39:15.313Z,1.70
2018-02-20T09:41:42.922Z,2.10
2018-02-20T09:44:10.493Z,2.40
2018-02-20T09:46:38.121Z,2.70
2018-02-20T09:49:05.733Z,3.00
2018-02-20T09:51:34.080Z,3.20
2018-02-20T09:54:02.434Z,3.20
2018-02-20T09:56:30.041Z,3.20
2018-02-20T09:58:58.390Z,3.40
2018-02-20T10:01:25.948Z,3.40
2018-02-20T10:03:53.547Z,3.50
2018-02-20T10:06:21.107Z,3.70
2018-02-20T10:08:49.433Z,4.00
2018-02-20T10:11:17.032Z,3.90
2018-02-20T10:13:45.979Z,4.20
2018-02-20T10:16:13.556Z,4.20
2018-02-20T10:18:42.696Z,4.20
2018-02-20T10:21:10.281Z,4.30
2018-02-20T10:23:37.896Z,4.40
2018-02-20T10:26:06.252Z,4.80
2018-02-20T10:28:33.846Z,4.70
2018-02-20T10:31:02.596Z,5.00
2018-02-20T10:33:30.161Z,4.90
2018-02-20T10:35:58.487Z,5.30
2018-02-20T10:38:26.078Z,5.20
2018-02-20T10:40:53.655Z,5.50
2018-02-20T10:43:21.222Z,5.60
2018-02-20T10:45:49.585Z,6.00
2018-02-20T10:48:18.024Z,6.10
2018-02-20T10:50:45.846Z,6.00
2018-02-20T10:53:14.202Z,6.30
2018-02-20T10:55:41.769Z,6.30
2018-02-20T10:58:09.371Z,6.50
2018-02-20T11:00:37.366Z,6.60
2018-02-20T11:03:04.921Z,6.70
2018-02-20T11:05:32.488Z,6.50
2018-02-20T11:08:00.700Z,6.50
2018-02-20T11:10:29.029Z,6.80
2018-02-20T11:12:56.650Z,6.70
2018-02-20T11:15:25.039Z,7.00
2018-02-20T11:17:52.639Z,6.90
2018-02-20T11:20:20.205Z,7.00
2018-02-20T11:22:47.806Z,6.90
2018-02-20T11:25:16.131Z,7.20
2018-02-20T11:27:44.161Z,7.10
2018-02-20T11:30:11.727Z,7.30
2018-02-20T11:32:39.353Z,7.20
2018-02-20T11:35:06.881Z,7.10
2018-02-20T11:37:35.411Z,7.10
2018-02-20T11:40:03.768Z,6.70
2018-02-20T11:42:31.348Z,6.60
2018-02-20T11:44:58.878Z,6.80
2018-02-20T11:47:26.844Z,6.80
2018-02-20T11:49:54.413Z,6.80
2018-02-20T11:52:22.761Z,7.10
2018-02-20T11:54:51.561Z,7.00
2018-02-20T11:57:20.001Z,7.50
2018-02-20T11:59:47.563Z,7.40
2018-02-20T12:02:15.164Z,7.50
2018-02-20T12:04:43.116Z,7.60
2018-02-20T12:07:10.699Z,7.60
2018-02-20T12:09:38.301Z,7.60
2018-02-20T12:12:05.866Z,7.70
2018-02-20T12:14:33.851Z,7.80
2018-02-20T12:17:01.729Z,7.80
2018-02-20T12:19:29.328Z,7.80
2018-02-20T12:21:57.659Z,7.50
2018-02-20T12:24:25.256Z,7.40
2018-02-20T12:26:53.586Z,7.60
2018-02-20T12:29:21.182Z,7.50
2018-02-20T12:31:49.100Z,7.70
2018-02-20T12:34:16.678Z,7.70
2018-02-20T12:36:44.354Z,7.70
2018-02-20T12:39:11.963Z,7.80
2018-02-20T12:41:39.537Z,7.60
2018-02-20T12:44:07.144Z,7.80
2018-02-20T12:46:34.751Z,7.90
2018-02-20T12:49:02.317Z,7.80
2018-02-20T12:51:30.033Z,7.70
2018-02-20T12:53:58.399Z,7.60
2018-02-20T12:56:26.734Z,7.40
2018-02-20T12:58:54.299Z,7.30
2018-02-20T13:01:22.183Z,7.20
2018-02-20T13:03:49.745Z,6.80
2018-02-20T13:06:17.315Z,7.10
2018-02-20T13:08:44.905Z,7.30
2018-02-20T13:11:12.491Z,7.40
2018-02-20T13:13:40.089Z,7.50
2018-02-20T13:16:08.682Z,7.70
2018-02-20T13:18:36.240Z,7.70
2018-02-20T13:21:03.810Z,7.90
2018-02-20T13:23:32.181Z,7.90
2018-02-20T13:25:59.754Z,7.80
2018-02-20T13:28:28.083Z,7.70
2018-02-20T13:30:55.938Z,7.70
2018-02-20T13:33:23.503Z,7.80
2018-02-20T13:35:51.055Z,7.50
2018-02-20T13:38:18.648Z,7.50
2018-02-20T13:40:46.214Z,7.30
2018-02-20T13:43:13.790Z,7.20
2018-02-20T13:45:42.426Z,7.20
2018-02-20T13:48:10.000Z,7.10
2018-02-20T13:50:39.383Z,7.10
2018-02-20T13:53:06.983Z,7.00
2018-02-20T13:55:35.310Z,6.90
2018-02-20T13:58:02.880Z,6.80
2018-02-20T14:00:30.469Z,6.70
2018-02-20T14:02:58.819Z,6.40
2018-02-20T14:05:26.401Z,6.40
2018-02-20T14:07:53.986Z,6.40
2018-02-20T14:10:22.336Z,6.30
2018-02-20T14:12:49.894Z,6.20
2018-02-20T14:15:18.272Z,7.20
2018-02-20T14:17:45.842Z,7.10
2018-02-20T14:20:13.414Z,8.40
2018-02-20T14:22:41.904Z,10.80
2018-02-20T14:25:09.482Z,10.70
2018-02-20T14:27:37.053Z,11.40
2018-02-20T14:30:04.655Z,11.80
2018-02-20T14:32:32.215Z,12.20
2018-02-20T14:34:59.813Z,12.50
2018-02-20T14:37:27.440Z,12.30
2018-02-20T14:39:55.768Z,12.10
2018-02-20T14:42:24.199Z,12.10
2018-02-20T14:44:52.863Z,12.00
2018-02-20T14:47:22.290Z,11.50
2018-02-20T14:49:50.635Z,11.90
2018-02-20T14:52:18.254Z,11.90
2018-02-20T14:54:45.819Z,12.20
2018-02-20T14:57:13.434Z,12.30
2018-02-20T14:59:41.156Z,12.30
2018-02-20T15:02:08.722Z,11.70
2018-02-20T15:04:36.324Z,11.30
2018-02-20T15:07:04.697Z,10.30
2018-02-20T15:09:33.035Z,9.70
2018-02-20T15:12:00.675Z,9.60
2018-02-20T15:14:28.632Z,9.10
2018-02-20T15:16:56.194Z,8.80
2018-02-20T15:19:23.756Z,8.30
2018-02-20T15:21:51.487Z,7.90
2018-02-20T15:24:19.820Z,7.40
2018-02-20T15:26:47.385Z,7.30
2018-02-20T15:29:14.974Z,7.40
2018-02-20T15:31:43.312Z,7.10
2018-02-20T15:34:10.917Z,7.00
2018-02-20T15:36:38.817Z,6.90
2018-02-20T15:39:06.378Z,6.80
2018-02-20T15:41:34.003Z,6.60
2018-02-20T15:44:02.794Z,6.40
2018-02-20T15:46:31.156Z,6.20
2018-02-20T15:48:58.713Z,6.20
2018-02-20T15:51:26.580Z,6.10
2018-02-20T15:53:54.920Z,5.80
2018-02-20T15:56:22.490Z,5.70
2018-02-20T15:58:50.087Z,5.70
2018-02-20T16:01:18.569Z,5.50
2018-02-20T16:03:46.894Z,5.40
2018-02-20T16:06:14.774Z,5.40
2018-02-20T16:08:42.353Z,5.20
2018-02-20T16:11:10.716Z,5.00
2018-02-20T16:13:38.578Z,4.90
2018-02-20T16:16:10.864Z,4.90
2018-02-20T16:18:38.471Z,4.90
2018-02-20T16:21:06.038Z,4.80
2018-02-20T16:23:33.618Z,4.80
2018-02-20T16:26:03.020Z,4.40
2018-02-20T16:28:30.656Z,4.40
2018-02-20T16:30:58.211Z,4.50
2018-02-20T16:33:25.808Z,4.30
2018-02-20T16:35:53.376Z,4.20
2018-02-20T16:38:20.965Z,4.10
2018-02-20T16:40:49.738Z,3.90
2018-02-20T16:43:18.164Z,3.80
2018-02-20T16:45:45.782Z,3.70
2018-02-20T16:48:14.155Z,3.50
2018-02-20T16:50:42.516Z,3.40
2018-02-20T16:53:10.847Z,3.30
2018-02-20T16:55:38.468Z,3.20
2018-02-20T16:58:07.024Z,3.20
2018-02-20T17:00:34.601Z,3.20
2018-02-20T17:03:02.998Z,3.00
2018-02-20T17:05:31.339Z,2.90
2018-02-20T17:07:58.909Z,2.90
2018-02-20T17:10:26.532Z,2.80
2018-02-20T17:12:54.118Z,2.50
2018-02-20T17:15:21.692Z,2.40
2018-02-20T17:17:49.714Z,2.40
2018-02-20T17:20:17.279Z,2.30
2018-02-20T17:22:44.852Z,2.10
2018-02-20T17:25:12.471Z,2.10
2018-02-20T17:27:40.047Z,2.00
2018-02-20T17:30:07.664Z,1.90
2018-02-20T17:32:35.620Z,1.90
2018-02-20T17:35:03.203Z,1.80
2018-02-20T17:37:31.514Z,1.50
2018-02-20T17:39:59.411Z,1.40
2018-02-20T17:42:27.766Z,1.50
2018-02-20T17:44:55.340Z,1.40
2018-02-20T17:47:23.312Z,1.40
2018-02-20T17:49:51.050Z,1.20
2018-02-20T17:52:18.627Z,1.20
2018-02-20T17:54:46.494Z,1.10
2018-02-20T17:57:14.161Z,1.10
2018-02-20T17:59:41.729Z,1.00
2018-02-20T18:02:09.379Z,1.00
2018-02-20T18:04:36.914Z,1.00
2018-02-20T18:07:04.481Z,1.00
2018-02-20T18:09:32.138Z,1.00
2018-02-20T18:12:00.036Z,1.00
2018-02-20T18:14:27.598Z,1.00
2018-02-20T18:16:55.202Z,0.90
2018-02-20T18:19:22.785Z,0.70
2018-02-20T18:21:50.359Z,0.70
2018-02-20T18:24:18.512Z,0.70
2018-02-20T18:26:46.133Z,0.70
2018-02-20T18:29:15.313Z,0.40
2018-02-20T18:31:43.766Z,0.30
2018-02-20T18:34:11.366Z,0.20
2018-02-20T18:36:39.718Z,0.30
2018-02-20T18:39:08.388Z,0.20
2018-02-20T18:41:35.956Z,0.10
2018-02-20T18:44:03.516Z,0.00
2018-02-20T18:46:31.141Z,-0.10
2018-02-20T18:48:58.728Z,-0.10
2018-02-20T18:51:26.342Z,-0.20
2018-02-20T18:53:53.956Z,-0.30
2018-02-20T18:56:21.547Z,-0.30
2018-02-20T18:58:50.195Z,-0.10
2018-02-20T19:01:17.785Z,-0.10
2018-02-20T19:03:46.136Z,-0.10
2018-02-20T19:06:13.739Z,-0.20
2018-02-20T19:08:41.347Z,-0.10
2018-02-20T19:11:08.926Z,-0.20
2018-02-20T19:13:37.312Z,-0.40
2018-02-20T19:16:05.649Z,-0.70
2018-02-20T19:18:33.215Z,-0.80
2018-02-20T19:21:01.177Z,-0.80
2018-02-20T19:23:28.744Z,-1.00
2018-02-20T19:25:56.326Z,-1.00
2018-02-20T19:28:24.665Z,-0.90
2018-02-20T19:30:53.033Z,-0.80
2018-02-20T19:33:20.643Z,-0.90
2018-02-20T19:35:49.291Z,-1.00
2018-02-20T19:38:16.841Z,-1.00
2018-02-20T19:40:44.411Z,-0.90
2018-02-20T19:43:12.387Z,-0.90
2018-02-20T19:45:39.953Z,-0.70
2018-02-20T19:48:07.532Z,-0.50
2018-02-20T19:50:35.937Z,-0.70
2018-02-20T19:53:03.501Z,-0.80
2018-02-20T19:55:31.124Z,-0.80
2018-02-20T19:57:59.494Z,-1.10
2018-02-20T20:00:27.864Z,-1.10
2018-02-20T20:02:55.798Z,-1.20
2018-02-20T20:05:23.401Z,-1.20
2018-02-20T20:07:50.990Z,-1.30
2018-02-20T20:10:18.613Z,-1.00
2018-02-20T20:12:46.208Z,-0.90
2018-02-20T20:15:13.806Z,-0.70
2018-02-20T20:17:41.382Z,-0.60
2018-02-20T20:20:08.957Z,-0.50
2018-02-20T20:22:37.410Z,-0.50
2018-02-20T20:25:05.458Z,-0.60
2018-02-20T20:27:33.084Z,-0.50
2018-02-20T20:30:01.418Z,-0.70
2018-02-20T20:32:29.022Z,-0.70
2018-02-20T20:34:57.598Z,-0.50
2018-02-20T20:37:25.928Z,-0.40
2018-02-20T20:39:53.793Z,-0.50
2018-02-20T20:42:21.367Z,-0.40
2018-02-20T20:44:48.963Z,-0.50
2018-02-20T20:47:17.841Z,-0.60
2018-02-20T20:49:46.263Z,-0.60
2018-02-20T20:52:13.882Z,-0.60
2018-02-20T20:54:42.352Z,-0.70
2018-02-20T20:57:09.946Z,-0.70
2018-02-20T20:59:37.529Z,-0.70
2018-02-20T21:02:05.101Z,-0.70
2018-02-20T21:04:32.990Z,-0.60
2018-02-20T21:07:00.584Z,-0.70
2018-02-20T21:09:28.250Z,-0.90
2018-02-20T21:11:55.857Z,-1.00
2018-02-20T21:14:23.437Z,-1.10
2018-02-20T21:16:51.006Z,-1.00
2018-02-20T21:19:19.727Z,-1.20
2018-02-20T21:21:47.390Z,-1.30
2018-02-20T21:24:14.982Z,-1.10
2018-02-20T21:26:42.947Z,-1.00
2018-02-20T21:29:10.540Z,-1.00
2018-02-20T21:31:38.925Z,-1.10
2018-02-20T21:34:07.578Z,-1.20
2018-02-20T21:36:35.156Z,-1.20
2018-02-20T21:39:03.905Z,-1.20
2018-02-20T21:41:31.787Z,-1.20
2018-02-20T21:43:59.362Z,-1.10
2018-02-20T21:46:26.939Z,-1.10
2018-02-20T21:48:55.321Z,-1.10
2018-02-20T21:51:23.667Z,-1.20
2018-02-20T21:53:52.006Z,-1.30
2018-02-20T21:56:19.927Z,-1.30
2018-02-20T21:58:48.266Z,-1.50
2018-02-20T22:01:15.842Z,-1.60
2018-02-20T22:03:43.450Z,-1.50
2018-02-20T22:06:11.046Z,-1.50
2018-02-20T22:08:38.637Z,-1.40
2018-02-20T22:11:07.018Z,-1.60
2018-02-20T22:13:35.379Z,-1.60
2018-02-20T22:16:02.982Z,-1.60
2018-02-20T22:18:30.847Z,-1.40
2018-02-20T22:20:58.411Z,-1.60
2018-02-20T22:23:25.999Z,-1.60
2018-02-20T22:25:53.607Z,-1.70
2018-02-20T22:28:21.994Z,-2.10
2018-02-20T22:30:49.812Z,-2.10
2018-02-20T22:33:17.386Z,-2.10
2018-02-20T22:35:45.554Z,-2.00
2018-02-20T22:38:13.437Z,-2.00
2018-02-20T22:40:41.032Z,-1.80
2018-02-20T22:43:08.595Z,-1.60
2018-02-20T22:45:36.201Z,-1.50
2018-02-20T22:48:03.853Z,-1.40
2018-02-20T22:50:31.464Z,-1.30
2018-02-20T22:52:59.080Z,-1.30
2018-02-20T22:55:26.673Z,-1.40
2018-02-20T22:57:54.994Z,-1.70
2018-02-20T23:00:22.607Z,-1.70
2018-02-20T23:02:50.985Z,-1.90
2018-02-20T23:05:18.574Z,-2.00
2018-02-20T23:07:46.144Z,-1.90
2018-02-20T23:10:13.763Z,-1.70
2018-02-20T23:12:42.110Z,-1.50
2018-02-20T23:15:09.714Z,-1.60
2018-02-20T23:17:37.666Z,-1.70
2018-02-20T23:20:05.258Z,-1.80
2018-02-20T23:22:32.912Z,-1.90
2018-02-20T23:25:00.545Z,-2.00
2018-02-20T23:27:28.913Z,-2.00
2018-02-20T23:29:57.266Z,-1.90
2018-02-20T23:32:24.854Z,-1.90
2018-02-20T23:34:52.460Z,-2.00
2018-02-20T23:37:20.025Z,-2.00
2018-02-20T23:39:47.606Z,-2.00
2018-02-20T23:42:15.200Z,-2.00
2018-02-20T23:44:43.565Z,-2.00
2018-02-20T23:47:11.922Z,-2.10
2018-02-20T23:49:39.496Z,-2.10
2018-02-20T23:52:07.874Z,-2.00
2018-02-20T23:54:36.301Z,-2.10
2018-02-20T23:57:03.871Z,-2.20
2018-02-20T23:59:31.470Z,-2.00
